sensor_id;sensor_type;location;lat;lon;timestamp;temperature;humidity
1453;DHT22;720;47.738;7.998;2023-05-20T00:00:45;12.30;99.90
1453;DHT22;720;47.738;7.998;2023-05-20T00:03:16;12.30;96.70
1453;DHT22;720;47.738;7.998;2023-05-20T00:05:42;12.30;96.60
1453;DHT22;720;47.738;7.998;2023-05-20T00:08:08;12.30;96.40
1453;DHT22;720;47.738;7.998;2023-05-20T00:10:37;12.40;97.00
1453;DHT22;720;47.738;7.998;2023-05-20T00:13:02;12.30;97.10
1453;DHT22;720;47.738;7.998;2023-05-20T00:15:28;12.20;96.50
1453;DHT22;720;47.738;7.998;2023-05-20T00:17:54;12.30;96.70
1453;DHT22;720;47.738;7.998;2023-05-20T00:20:20;12.20;97.00
1453;DHT22;720;47.738;7.998;2023-05-20T00:22:46;12.30;96.50
1453;DHT22;720;47.738;7.998;2023-05-20T00:25:11;12.20;97.30
1453;DHT22;720;47.738;7.998;2023-05-20T00:27:39;12.20;97.10
1453;DHT22;720;47.738;7.998;2023-05-20T00:30:06;12.20;97.20
1453;DHT22;720;47.738;7.998;2023-05-20T00:32:32;12.10;97.00
1453;DHT22;720;47.738;7.998;2023-05-20T00:34:58;12.10;97.30
1453;DHT22;720;47.738;7.998;2023-05-20T00:37:24;12.00;97.60
1453;DHT22;720;47.738;7.998;2023-05-20T00:39:50;12.00;97.30
1453;DHT22;720;47.738;7.998;2023-05-20T00:42:23;12.10;97.10
1453;DHT22;720;47.738;7.998;2023-05-20T00:44:50;12.10;97.10
1453;DHT22;720;47.738;7.998;2023-05-20T00:47:17;12.10;97.10
1453;DHT22;720;47.738;7.998;2023-05-20T00:49:44;12.20;97.10
1453;DHT22;720;47.738;7.998;2023-05-20T00:52:11;12.10;97.50
1453;DHT22;720;47.738;7.998;2023-05-20T00:54:37;12.00;97.60
1453;DHT22;720;47.738;7.998;2023-05-20T00:57:04;12.00;97.70
1453;DHT22;720;47.738;7.998;2023-05-20T00:59:35;12.10;97.70
1453;DHT22;720;47.738;7.998;2023-05-20T01:02:02;12.10;97.60
1453;DHT22;720;47.738;7.998;2023-05-20T01:04:29;12.10;97.60
1453;DHT22;720;47.738;7.998;2023-05-20T01:06:55;12.00;98.00
1453;DHT22;720;47.738;7.998;2023-05-20T01:09:22;12.10;98.50
1453;DHT22;720;47.738;7.998;2023-05-20T01:11:51;12.10;97.80
1453;DHT22;720;47.738;7.998;2023-05-20T01:14:23;12.20;97.40
1453;DHT22;720;47.738;7.998;2023-05-20T01:16:51;12.30;97.30
1453;DHT22;720;47.738;7.998;2023-05-20T01:19:28;12.30;97.10
1453;DHT22;720;47.738;7.998;2023-05-20T01:21:59;12.30;97.70
1453;DHT22;720;47.738;7.998;2023-05-20T01:24:27;12.30;98.00
1453;DHT22;720;47.738;7.998;2023-05-20T01:26:53;12.30;98.20
1453;DHT22;720;47.738;7.998;2023-05-20T01:29:18;12.40;98.10
1453;DHT22;720;47.738;7.998;2023-05-20T01:31:45;12.40;98.30
1453;DHT22;720;47.738;7.998;2023-05-20T01:34:12;12.50;98.00
1453;DHT22;720;47.738;7.998;2023-05-20T01:36:38;12.50;98.00
1453;DHT22;720;47.738;7.998;2023-05-20T01:39:05;12.50;97.70
1453;DHT22;720;47.738;7.998;2023-05-20T01:41:32;12.50;97.60
1453;DHT22;720;47.738;7.998;2023-05-20T01:44:00;12.40;97.30
1453;DHT22;720;47.738;7.998;2023-05-20T01:46:25;12.40;97.60
1453;DHT22;720;47.738;7.998;2023-05-20T01:48:51;12.30;97.90
1453;DHT22;720;47.738;7.998;2023-05-20T01:51:17;12.30;97.70
1453;DHT22;720;47.738;7.998;2023-05-20T01:53:42;12.30;97.60
1453;DHT22;720;47.738;7.998;2023-05-20T01:56:08;12.30;97.80
1453;DHT22;720;47.738;7.998;2023-05-20T01:58:34;12.30;98.00
1453;DHT22;720;47.738;7.998;2023-05-20T02:00:59;12.30;97.60
1453;DHT22;720;47.738;7.998;2023-05-20T02:03:25;12.20;97.20
1453;DHT22;720;47.738;7.998;2023-05-20T02:05:51;12.30;97.40
1453;DHT22;720;47.738;7.998;2023-05-20T02:08:17;12.30;97.60
1453;DHT22;720;47.738;7.998;2023-05-20T02:10:42;12.30;97.60
1453;DHT22;720;47.738;7.998;2023-05-20T02:13:08;12.20;98.00
1453;DHT22;720;47.738;7.998;2023-05-20T02:15:34;12.00;98.50
1453;DHT22;720;47.738;7.998;2023-05-20T02:17:59;12.00;98.50
1453;DHT22;720;47.738;7.998;2023-05-20T02:20:25;12.00;98.50
1453;DHT22;720;47.738;7.998;2023-05-20T02:22:50;12.00;98.90
1453;DHT22;720;47.738;7.998;2023-05-20T02:25:16;12.10;99.00
1453;DHT22;720;47.738;7.998;2023-05-20T02:27:42;12.20;98.80
1453;DHT22;720;47.738;7.998;2023-05-20T02:30:07;12.30;98.50
1453;DHT22;720;47.738;7.998;2023-05-20T02:32:33;12.40;98.10
1453;DHT22;720;47.738;7.998;2023-05-20T02:34:59;12.40;98.40
1453;DHT22;720;47.738;7.998;2023-05-20T02:37:24;12.40;98.20
1453;DHT22;720;47.738;7.998;2023-05-20T02:39:50;12.50;98.10
1453;DHT22;720;47.738;7.998;2023-05-20T02:42:16;12.60;98.20
1453;DHT22;720;47.738;7.998;2023-05-20T02:44:41;12.60;98.10
1453;DHT22;720;47.738;7.998;2023-05-20T02:47:07;12.60;97.90
1453;DHT22;720;47.738;7.998;2023-05-20T02:49:32;12.50;97.90
1453;DHT22;720;47.738;7.998;2023-05-20T02:51:58;12.50;98.10
1453;DHT22;720;47.738;7.998;2023-05-20T02:54:24;12.60;98.10
1453;DHT22;720;47.738;7.998;2023-05-20T02:56:49;12.60;98.10
1453;DHT22;720;47.738;7.998;2023-05-20T02:59:15;12.60;98.00
1453;DHT22;720;47.738;7.998;2023-05-20T03:01:41;12.60;98.20
1453;DHT22;720;47.738;7.998;2023-05-20T03:04:07;12.40;98.70
1453;DHT22;720;47.738;7.998;2023-05-20T03:06:33;12.30;99.10
1453;DHT22;720;47.738;7.998;2023-05-20T03:08:59;12.30;98.50
1453;DHT22;720;47.738;7.998;2023-05-20T03:11:24;12.20;98.90
1453;DHT22;720;47.738;7.998;2023-05-20T03:13:50;12.30;99.00
1453;DHT22;720;47.738;7.998;2023-05-20T03:16:16;12.40;99.00
1453;DHT22;720;47.738;7.998;2023-05-20T03:18:42;12.40;98.70
1453;DHT22;720;47.738;7.998;2023-05-20T03:21:08;12.50;98.50
1453;DHT22;720;47.738;7.998;2023-05-20T03:23:34;12.40;98.70
1453;DHT22;720;47.738;7.998;2023-05-20T03:26:00;12.30;98.70
1453;DHT22;720;47.738;7.998;2023-05-20T03:28:26;12.20;99.00
1453;DHT22;720;47.738;7.998;2023-05-20T03:30:51;12.00;99.90
1453;DHT22;720;47.738;7.998;2023-05-20T03:33:17;12.10;99.50
1453;DHT22;720;47.738;7.998;2023-05-20T03:35:43;12.10;99.40
1453;DHT22;720;47.738;7.998;2023-05-20T03:38:08;11.90;99.70
1453;DHT22;720;47.738;7.998;2023-05-20T03:40:34;11.90;99.90
1453;DHT22;720;47.738;7.998;2023-05-20T03:43:00;11.90;99.70
1453;DHT22;720;47.738;7.998;2023-05-20T03:45:26;12.00;99.50
1453;DHT22;720;47.738;7.998;2023-05-20T03:47:51;12.10;99.60
1453;DHT22;720;47.738;7.998;2023-05-20T03:50:17;12.20;99.30
1453;DHT22;720;47.738;7.998;2023-05-20T03:52:42;12.30;99.30
1453;DHT22;720;47.738;7.998;2023-05-20T03:55:09;12.30;99.10
1453;DHT22;720;47.738;7.998;2023-05-20T03:57:35;12.40;99.30
1453;DHT22;720;47.738;7.998;2023-05-20T04:00:01;12.40;99.10
1453;DHT22;720;47.738;7.998;2023-05-20T04:02:30;12.50;99.20
1453;DHT22;720;47.738;7.998;2023-05-20T04:04:55;12.40;99.60
1453;DHT22;720;47.738;7.998;2023-05-20T04:07:22;12.50;99.70
1453;DHT22;720;47.738;7.998;2023-05-20T04:09:48;12.40;99.80
1453;DHT22;720;47.738;7.998;2023-05-20T04:12:13;12.30;99.70
1453;DHT22;720;47.738;7.998;2023-05-20T04:14:39;12.40;99.50
1453;DHT22;720;47.738;7.998;2023-05-20T04:17:06;12.50;99.20
1453;DHT22;720;47.738;7.998;2023-05-20T04:19:32;12.50;99.60
1453;DHT22;720;47.738;7.998;2023-05-20T04:21:59;12.50;99.90
1453;DHT22;720;47.738;7.998;2023-05-20T04:24:25;12.50;99.80
1453;DHT22;720;47.738;7.998;2023-05-20T04:26:51;12.60;99.90
1453;DHT22;720;47.738;7.998;2023-05-20T04:29:17;12.70;99.90
1453;DHT22;720;47.738;7.998;2023-05-20T04:31:45;12.70;99.90
1453;DHT22;720;47.738;7.998;2023-05-20T04:34:11;12.60;99.20
1453;DHT22;720;47.738;7.998;2023-05-20T04:36:37;12.60;99.60
1453;DHT22;720;47.738;7.998;2023-05-20T04:39:03;12.50;99.60
1453;DHT22;720;47.738;7.998;2023-05-20T04:41:29;12.30;99.90
1453;DHT22;720;47.738;7.998;2023-05-20T04:43:55;12.30;99.90
1453;DHT22;720;47.738;7.998;2023-05-20T04:46:25;12.40;99.90
1453;DHT22;720;47.738;7.998;2023-05-20T04:48:51;12.60;99.90
1453;DHT22;720;47.738;7.998;2023-05-20T04:51:18;12.70;99.80
1453;DHT22;720;47.738;7.998;2023-05-20T04:53:44;12.80;99.70
1453;DHT22;720;47.738;7.998;2023-05-20T04:56:10;13.00;99.40
1453;DHT22;720;47.738;7.998;2023-05-20T04:58:35;13.00;99.00
1453;DHT22;720;47.738;7.998;2023-05-20T05:01:02;13.20;99.10
1453;DHT22;720;47.738;7.998;2023-05-20T05:03:28;13.20;98.50
1453;DHT22;720;47.738;7.998;2023-05-20T05:05:57;13.40;98.40
1453;DHT22;720;47.738;7.998;2023-05-20T05:08:23;13.50;98.30
1453;DHT22;720;47.738;7.998;2023-05-20T05:10:49;13.50;99.90
1453;DHT22;720;47.738;7.998;2023-05-20T05:13:15;13.50;98.10
1453;DHT22;720;47.738;7.998;2023-05-20T05:15:41;13.50;98.10
1453;DHT22;720;47.738;7.998;2023-05-20T05:18:06;13.50;98.00
1453;DHT22;720;47.738;7.998;2023-05-20T05:20:32;13.60;98.60
1453;DHT22;720;47.738;7.998;2023-05-20T05:22:57;13.70;98.30
1453;DHT22;720;47.738;7.998;2023-05-20T05:25:23;13.90;97.80
1453;DHT22;720;47.738;7.998;2023-05-20T05:27:49;14.00;97.80
1453;DHT22;720;47.738;7.998;2023-05-20T05:30:15;13.90;97.60
1453;DHT22;720;47.738;7.998;2023-05-20T05:32:41;14.10;97.50
1453;DHT22;720;47.738;7.998;2023-05-20T05:35:07;14.10;97.10
1453;DHT22;720;47.738;7.998;2023-05-20T05:37:32;14.20;97.30
1453;DHT22;720;47.738;7.998;2023-05-20T05:39:58;14.30;97.30
1453;DHT22;720;47.738;7.998;2023-05-20T05:42:24;14.20;97.30
1453;DHT22;720;47.738;7.998;2023-05-20T05:44:49;14.10;97.50
1453;DHT22;720;47.738;7.998;2023-05-20T05:47:16;13.90;98.10
1453;DHT22;720;47.738;7.998;2023-05-20T05:49:41;13.90;98.20
1453;DHT22;720;47.738;7.998;2023-05-20T05:52:07;14.10;97.80
1453;DHT22;720;47.738;7.998;2023-05-20T05:54:33;14.10;97.60
1453;DHT22;720;47.738;7.998;2023-05-20T05:56:58;13.90;97.60
1453;DHT22;720;47.738;7.998;2023-05-20T05:59:24;13.80;97.70
1453;DHT22;720;47.738;7.998;2023-05-20T06:01:50;13.80;98.40
1453;DHT22;720;47.738;7.998;2023-05-20T06:04:15;13.70;98.80
1453;DHT22;720;47.738;7.998;2023-05-20T06:06:41;13.60;99.00
1453;DHT22;720;47.738;7.998;2023-05-20T06:09:07;13.80;99.20
1453;DHT22;720;47.738;7.998;2023-05-20T06:11:32;13.80;98.20
1453;DHT22;720;47.738;7.998;2023-05-20T06:13:58;13.50;99.00
1453;DHT22;720;47.738;7.998;2023-05-20T06:16:24;13.40;99.00
1453;DHT22;720;47.738;7.998;2023-05-20T06:18:50;13.40;98.90
1453;DHT22;720;47.738;7.998;2023-05-20T06:21:16;13.20;99.30
1453;DHT22;720;47.738;7.998;2023-05-20T06:23:41;13.00;99.80
1453;DHT22;720;47.738;7.998;2023-05-20T06:26:07;12.60;99.90
1453;DHT22;720;47.738;7.998;2023-05-20T06:28:32;12.60;99.90
1453;DHT22;720;47.738;7.998;2023-05-20T06:30:58;12.80;99.90
1453;DHT22;720;47.738;7.998;2023-05-20T06:33:24;13.00;99.90
1453;DHT22;720;47.738;7.998;2023-05-20T06:35:59;13.20;99.90
1453;DHT22;720;47.738;7.998;2023-05-20T06:38:26;13.40;99.90
1453;DHT22;720;47.738;7.998;2023-05-20T06:40:51;13.70;99.90
1453;DHT22;720;47.738;7.998;2023-05-20T06:43:17;13.70;99.30
1453;DHT22;720;47.738;7.998;2023-05-20T06:45:43;13.80;99.40
1453;DHT22;720;47.738;7.998;2023-05-20T06:48:09;13.90;98.90
1453;DHT22;720;47.738;7.998;2023-05-20T06:50:35;14.00;99.10
1453;DHT22;720;47.738;7.998;2023-05-20T06:53:01;14.00;98.20
1453;DHT22;720;47.738;7.998;2023-05-20T06:55:26;14.00;98.70
1453;DHT22;720;47.738;7.998;2023-05-20T06:57:52;14.00;98.90
1453;DHT22;720;47.738;7.998;2023-05-20T07:00:18;14.30;99.00
1453;DHT22;720;47.738;7.998;2023-05-20T07:02:44;14.70;98.30
1453;DHT22;720;47.738;7.998;2023-05-20T07:05:10;14.90;97.40
1453;DHT22;720;47.738;7.998;2023-05-20T07:07:37;14.90;96.50
1453;DHT22;720;47.738;7.998;2023-05-20T07:10:03;15.00;96.20
1453;DHT22;720;47.738;7.998;2023-05-20T07:12:30;15.20;97.00
1453;DHT22;720;47.738;7.998;2023-05-20T07:14:56;15.60;96.00
1453;DHT22;720;47.738;7.998;2023-05-20T07:17:22;16.10;95.10
1453;DHT22;720;47.738;7.998;2023-05-20T07:19:48;16.00;94.80
1453;DHT22;720;47.738;7.998;2023-05-20T07:22:14;15.90;94.50
1453;DHT22;720;47.738;7.998;2023-05-20T07:24:40;16.10;94.70
1453;DHT22;720;47.738;7.998;2023-05-20T07:27:07;16.40;94.40
1453;DHT22;720;47.738;7.998;2023-05-20T07:29:34;16.70;94.20
1453;DHT22;720;47.738;7.998;2023-05-20T07:32:00;16.70;92.70
1453;DHT22;720;47.738;7.998;2023-05-20T07:34:25;16.40;92.40
1453;DHT22;720;47.738;7.998;2023-05-20T07:36:51;16.00;93.70
1453;DHT22;720;47.738;7.998;2023-05-20T07:39:17;15.70;95.00
1453;DHT22;720;47.738;7.998;2023-05-20T07:41:43;15.60;94.40
1453;DHT22;720;47.738;7.998;2023-05-20T07:44:09;15.60;95.10
1453;DHT22;720;47.738;7.998;2023-05-20T07:46:35;15.50;94.40
1453;DHT22;720;47.738;7.998;2023-05-20T07:49:02;15.40;94.40
1453;DHT22;720;47.738;7.998;2023-05-20T07:51:28;15.20;94.50
1453;DHT22;720;47.738;7.998;2023-05-20T07:53:54;15.00;95.70
1453;DHT22;720;47.738;7.998;2023-05-20T07:56:20;14.80;95.40
1453;DHT22;720;47.738;7.998;2023-05-20T07:58:52;14.80;95.50
1453;DHT22;720;47.738;7.998;2023-05-20T08:01:18;14.50;95.90
1453;DHT22;720;47.738;7.998;2023-05-20T08:03:44;14.50;96.10
1453;DHT22;720;47.738;7.998;2023-05-20T08:06:10;14.60;97.00
1453;DHT22;720;47.738;7.998;2023-05-20T08:08:36;14.70;96.30
1453;DHT22;720;47.738;7.998;2023-05-20T08:11:01;14.80;95.90
1453;DHT22;720;47.738;7.998;2023-05-20T08:13:28;15.00;96.20
1453;DHT22;720;47.738;7.998;2023-05-20T08:15:54;15.20;96.30
1453;DHT22;720;47.738;7.998;2023-05-20T08:18:20;15.40;95.50
1453;DHT22;720;47.738;7.998;2023-05-20T08:20:46;15.60;95.10
1453;DHT22;720;47.738;7.998;2023-05-20T08:23:12;15.60;94.50
1453;DHT22;720;47.738;7.998;2023-05-20T08:25:37;15.70;94.50
1453;DHT22;720;47.738;7.998;2023-05-20T08:28:04;15.60;94.80
1453;DHT22;720;47.738;7.998;2023-05-20T08:30:32;15.00;95.30
1453;DHT22;720;47.738;7.998;2023-05-20T08:32:58;14.90;95.50
1453;DHT22;720;47.738;7.998;2023-05-20T08:35:24;15.10;95.40
1453;DHT22;720;47.738;7.998;2023-05-20T08:37:50;15.00;95.50
1453;DHT22;720;47.738;7.998;2023-05-20T08:40:19;15.20;95.20
1453;DHT22;720;47.738;7.998;2023-05-20T08:42:47;15.20;95.10
1453;DHT22;720;47.738;7.998;2023-05-20T08:45:16;15.30;95.30
1453;DHT22;720;47.738;7.998;2023-05-20T08:47:42;15.30;94.90
1453;DHT22;720;47.738;7.998;2023-05-20T08:50:12;15.20;95.20
1453;DHT22;720;47.738;7.998;2023-05-20T08:52:42;15.10;95.30
1453;DHT22;720;47.738;7.998;2023-05-20T08:55:13;14.90;95.90
1453;DHT22;720;47.738;7.998;2023-05-20T08:57:39;14.90;96.00
1453;DHT22;720;47.738;7.998;2023-05-20T09:00:07;14.80;96.70
1453;DHT22;720;47.738;7.998;2023-05-20T09:02:38;15.10;96.90
1453;DHT22;720;47.738;7.998;2023-05-20T09:05:04;15.30;96.50
1453;DHT22;720;47.738;7.998;2023-05-20T09:07:30;15.50;95.60
1453;DHT22;720;47.738;7.998;2023-05-20T09:09:56;15.50;95.20
1453;DHT22;720;47.738;7.998;2023-05-20T09:12:22;15.60;94.80
1453;DHT22;720;47.738;7.998;2023-05-20T09:14:48;15.70;94.80
1453;DHT22;720;47.738;7.998;2023-05-20T09:17:14;15.80;94.50
1453;DHT22;720;47.738;7.998;2023-05-20T09:19:42;15.80;94.90
1453;DHT22;720;47.738;7.998;2023-05-20T09:22:07;16.00;95.00
1453;DHT22;720;47.738;7.998;2023-05-20T09:24:33;16.40;94.50
1453;DHT22;720;47.738;7.998;2023-05-20T09:26:58;16.70;94.00
1453;DHT22;720;47.738;7.998;2023-05-20T09:29:25;17.00;93.30
1453;DHT22;720;47.738;7.998;2023-05-20T09:31:51;17.30;92.90
1453;DHT22;720;47.738;7.998;2023-05-20T09:34:19;17.60;92.80
1453;DHT22;720;47.738;7.998;2023-05-20T09:36:49;18.10;92.50
1453;DHT22;720;47.738;7.998;2023-05-20T09:39:16;18.80;91.20
1453;DHT22;720;47.738;7.998;2023-05-20T09:41:54;19.40;90.70
1453;DHT22;720;47.738;7.998;2023-05-20T09:44:21;19.80;88.60
1453;DHT22;720;47.738;7.998;2023-05-20T09:46:48;20.20;88.40
1453;DHT22;720;47.738;7.998;2023-05-20T09:49:15;20.80;83.60
1453;DHT22;720;47.738;7.998;2023-05-20T09:51:42;20.70;81.30
1453;DHT22;720;47.738;7.998;2023-05-20T09:54:10;20.60;82.50
1453;DHT22;720;47.738;7.998;2023-05-20T09:56:37;20.20;81.90
1453;DHT22;720;47.738;7.998;2023-05-20T09:59:04;20.20;84.20
1453;DHT22;720;47.738;7.998;2023-05-20T10:01:30;20.50;82.20
1453;DHT22;720;47.738;7.998;2023-05-20T10:03:56;20.40;81.40
1453;DHT22;720;47.738;7.998;2023-05-20T10:12:08;19.80;84.70
1453;DHT22;720;47.738;7.998;2023-05-20T10:17:30;20.10;81.70
1453;DHT22;720;47.738;7.998;2023-05-20T10:20:00;20.80;81.10
1453;DHT22;720;47.738;7.998;2023-05-20T10:22:28;21.60;80.00
1453;DHT22;720;47.738;7.998;2023-05-20T10:24:58;22.90;76.60
1453;DHT22;720;47.738;7.998;2023-05-20T10:27:24;23.90;71.50
1453;DHT22;720;47.738;7.998;2023-05-20T10:29:52;23.70;68.90
1453;DHT22;720;47.738;7.998;2023-05-20T10:32:28;23.10;71.10
1453;DHT22;720;47.738;7.998;2023-05-20T10:35:01;22.80;74.70
1453;DHT22;720;47.738;7.998;2023-05-20T10:37:39;22.90;74.30
1453;DHT22;720;47.738;7.998;2023-05-20T10:40:13;22.80;70.40
1453;DHT22;720;47.738;7.998;2023-05-20T10:42:39;22.30;70.90
1453;DHT22;720;47.738;7.998;2023-05-20T10:45:06;22.40;73.80
1453;DHT22;720;47.738;7.998;2023-05-20T10:47:33;22.60;71.30
1453;DHT22;720;47.738;7.998;2023-05-20T10:49:59;22.90;70.30
1453;DHT22;720;47.738;7.998;2023-05-20T10:52:26;22.30;69.40
1453;DHT22;720;47.738;7.998;2023-05-20T10:54:57;21.70;71.10
1453;DHT22;720;47.738;7.998;2023-05-20T10:57:24;21.40;71.40
1453;DHT22;720;47.738;7.998;2023-05-20T10:59:50;21.50;73.40
1453;DHT22;720;47.738;7.998;2023-05-20T11:02:18;21.90;72.40
1453;DHT22;720;47.738;7.998;2023-05-20T11:04:44;22.00;73.00
1453;DHT22;720;47.738;7.998;2023-05-20T11:07:11;22.50;73.70
1453;DHT22;720;47.738;7.998;2023-05-20T11:09:38;23.00;72.50
1453;DHT22;720;47.738;7.998;2023-05-20T11:12:04;23.40;68.50
1453;DHT22;720;47.738;7.998;2023-05-20T11:14:30;23.50;65.60
1453;DHT22;720;47.738;7.998;2023-05-20T11:16:57;23.10;67.60
1453;DHT22;720;47.738;7.998;2023-05-20T11:19:23;22.20;67.00
1453;DHT22;720;47.738;7.998;2023-05-20T11:21:48;21.50;69.70
1453;DHT22;720;47.738;7.998;2023-05-20T11:24:24;21.40;71.40
1453;DHT22;720;47.738;7.998;2023-05-20T11:26:50;21.60;71.50
1453;DHT22;720;47.738;7.998;2023-05-20T11:29:17;21.90;69.40
1453;DHT22;720;47.738;7.998;2023-05-20T11:31:44;22.20;69.90
1453;DHT22;720;47.738;7.998;2023-05-20T11:34:10;22.30;68.40
1453;DHT22;720;47.738;7.998;2023-05-20T11:36:42;22.50;69.80
1453;DHT22;720;47.738;7.998;2023-05-20T11:39:11;22.80;68.20
1453;DHT22;720;47.738;7.998;2023-05-20T11:41:38;22.60;67.60
1453;DHT22;720;47.738;7.998;2023-05-20T11:44:08;22.70;69.00
1453;DHT22;720;47.738;7.998;2023-05-20T11:46:40;22.80;71.40
1453;DHT22;720;47.738;7.998;2023-05-20T11:49:06;22.80;71.20
1453;DHT22;720;47.738;7.998;2023-05-20T11:51:33;22.50;69.00
1453;DHT22;720;47.738;7.998;2023-05-20T11:54:02;21.90;74.40
1453;DHT22;720;47.738;7.998;2023-05-20T11:56:36;21.80;76.00
1453;DHT22;720;47.738;7.998;2023-05-20T11:59:06;22.40;72.20
1453;DHT22;720;47.738;7.998;2023-05-20T12:01:39;22.70;66.10
1453;DHT22;720;47.738;7.998;2023-05-20T12:04:11;22.90;69.10
1453;DHT22;720;47.738;7.998;2023-05-20T12:06:40;23.10;66.20
1453;DHT22;720;47.738;7.998;2023-05-20T12:09:07;23.00;68.80
1453;DHT22;720;47.738;7.998;2023-05-20T12:11:36;22.90;67.50
1453;DHT22;720;47.738;7.998;2023-05-20T12:14:04;23.20;65.30
1453;DHT22;720;47.738;7.998;2023-05-20T12:16:31;23.30;65.70
1453;DHT22;720;47.738;7.998;2023-05-20T12:18:57;23.40;64.40
1453;DHT22;720;47.738;7.998;2023-05-20T12:21:23;23.60;66.90
1453;DHT22;720;47.738;7.998;2023-05-20T12:23:48;24.00;66.90
1453;DHT22;720;47.738;7.998;2023-05-20T12:26:14;24.10;65.90
1453;DHT22;720;47.738;7.998;2023-05-20T12:28:40;23.70;65.20
1453;DHT22;720;47.738;7.998;2023-05-20T12:31:06;23.30;61.70
1453;DHT22;720;47.738;7.998;2023-05-20T12:33:32;23.00;62.90
1453;DHT22;720;47.738;7.998;2023-05-20T12:35:57;22.50;63.90
1453;DHT22;720;47.738;7.998;2023-05-20T12:38:23;22.10;67.00
1453;DHT22;720;47.738;7.998;2023-05-20T12:40:49;22.30;79.70
1453;DHT22;720;47.738;7.998;2023-05-20T12:43:15;22.50;67.60
1453;DHT22;720;47.738;7.998;2023-05-20T12:45:40;22.70;65.30
1453;DHT22;720;47.738;7.998;2023-05-20T12:48:06;22.70;64.30
1453;DHT22;720;47.738;7.998;2023-05-20T12:50:32;22.30;65.40
1453;DHT22;720;47.738;7.998;2023-05-20T12:52:58;21.50;69.30
1453;DHT22;720;47.738;7.998;2023-05-20T12:55:23;21.40;68.20
1453;DHT22;720;47.738;7.998;2023-05-20T12:57:49;21.50;66.50
1453;DHT22;720;47.738;7.998;2023-05-20T13:00:15;21.70;67.60
1453;DHT22;720;47.738;7.998;2023-05-20T13:02:42;21.80;66.30
1453;DHT22;720;47.738;7.998;2023-05-20T13:05:08;21.70;66.50
1453;DHT22;720;47.738;7.998;2023-05-20T13:07:34;21.70;67.00
1453;DHT22;720;47.738;7.998;2023-05-20T13:10:00;21.70;68.20
1453;DHT22;720;47.738;7.998;2023-05-20T13:12:26;21.60;67.00
1453;DHT22;720;47.738;7.998;2023-05-20T13:14:52;21.60;66.90
1453;DHT22;720;47.738;7.998;2023-05-20T13:17:18;21.50;70.90
1453;DHT22;720;47.738;7.998;2023-05-20T13:19:43;21.50;71.20
1453;DHT22;720;47.738;7.998;2023-05-20T13:22:12;21.40;71.10
1453;DHT22;720;47.738;7.998;2023-05-20T13:24:37;21.50;69.40
1453;DHT22;720;47.738;7.998;2023-05-20T13:27:04;21.40;69.70
1453;DHT22;720;47.738;7.998;2023-05-20T13:29:29;21.60;69.80
1453;DHT22;720;47.738;7.998;2023-05-20T13:31:55;21.70;69.20
1453;DHT22;720;47.738;7.998;2023-05-20T13:34:21;21.50;69.70
1453;DHT22;720;47.738;7.998;2023-05-20T13:36:47;21.30;70.60
1453;DHT22;720;47.738;7.998;2023-05-20T13:39:16;21.00;74.60
1453;DHT22;720;47.738;7.998;2023-05-20T13:41:42;20.70;72.20
1453;DHT22;720;47.738;7.998;2023-05-20T13:44:07;20.70;70.60
1453;DHT22;720;47.738;7.998;2023-05-20T13:46:34;20.60;70.90
1453;DHT22;720;47.738;7.998;2023-05-20T13:49:00;20.20;71.80
1453;DHT22;720;47.738;7.998;2023-05-20T13:51:25;20.10;72.50
1453;DHT22;720;47.738;7.998;2023-05-20T13:53:51;19.90;73.10
1453;DHT22;720;47.738;7.998;2023-05-20T13:56:17;19.60;74.50
1453;DHT22;720;47.738;7.998;2023-05-20T13:58:43;19.60;75.10
1453;DHT22;720;47.738;7.998;2023-05-20T14:01:08;19.80;74.70
1453;DHT22;720;47.738;7.998;2023-05-20T14:03:36;19.90;74.90
1453;DHT22;720;47.738;7.998;2023-05-20T14:06:04;20.00;75.80
1453;DHT22;720;47.738;7.998;2023-05-20T14:08:30;19.90;75.10
1453;DHT22;720;47.738;7.998;2023-05-20T14:10:56;20.00;91.00
1453;DHT22;720;47.738;7.998;2023-05-20T14:13:21;20.00;76.70
1453;DHT22;720;47.738;7.998;2023-05-20T14:15:47;19.90;76.20
1453;DHT22;720;47.738;7.998;2023-05-20T14:18:17;19.90;78.60
1453;DHT22;720;47.738;7.998;2023-05-20T14:20:44;20.00;90.60
1453;DHT22;720;47.738;7.998;2023-05-20T14:23:10;20.10;77.60
1453;DHT22;720;47.738;7.998;2023-05-20T14:25:36;20.20;76.90
1453;DHT22;720;47.738;7.998;2023-05-20T14:28:01;20.40;76.10
1453;DHT22;720;47.738;7.998;2023-05-20T14:30:27;20.50;78.10
1453;DHT22;720;47.738;7.998;2023-05-20T14:32:53;20.60;77.10
1453;DHT22;720;47.738;7.998;2023-05-20T14:35:19;20.50;75.80
1453;DHT22;720;47.738;7.998;2023-05-20T14:37:45;20.60;76.80
1453;DHT22;720;47.738;7.998;2023-05-20T14:40:11;20.60;76.50
1453;DHT22;720;47.738;7.998;2023-05-20T14:42:37;20.80;76.10
1453;DHT22;720;47.738;7.998;2023-05-20T14:45:03;21.00;75.80
1453;DHT22;720;47.738;7.998;2023-05-20T14:47:29;21.00;77.10
1453;DHT22;720;47.738;7.998;2023-05-20T14:49:55;21.10;76.20
1453;DHT22;720;47.738;7.998;2023-05-20T14:52:21;21.10;75.80
1453;DHT22;720;47.738;7.998;2023-05-20T14:54:47;21.00;75.80
1453;DHT22;720;47.738;7.998;2023-05-20T14:57:13;21.00;79.40
1453;DHT22;720;47.738;7.998;2023-05-20T14:59:40;21.00;76.80
1453;DHT22;720;47.738;7.998;2023-05-20T15:02:06;21.10;76.90
1453;DHT22;720;47.738;7.998;2023-05-20T15:04:32;21.20;77.50
1453;DHT22;720;47.738;7.998;2023-05-20T15:06:58;21.20;77.90
1453;DHT22;720;47.738;7.998;2023-05-20T15:09:23;21.20;75.20
1453;DHT22;720;47.738;7.998;2023-05-20T15:11:49;21.20;75.20
1453;DHT22;720;47.738;7.998;2023-05-20T15:14:15;21.10;76.20
1453;DHT22;720;47.738;7.998;2023-05-20T15:16:41;21.20;76.50
1453;DHT22;720;47.738;7.998;2023-05-20T15:19:09;21.20;76.10
1453;DHT22;720;47.738;7.998;2023-05-20T15:21:34;21.20;74.90
1453;DHT22;720;47.738;7.998;2023-05-20T15:24:00;21.00;76.50
1453;DHT22;720;47.738;7.998;2023-05-20T15:26:28;20.90;76.40
1453;DHT22;720;47.738;7.998;2023-05-20T15:28:54;20.70;74.80
1453;DHT22;720;47.738;7.998;2023-05-20T15:31:20;20.60;76.70
1453;DHT22;720;47.738;7.998;2023-05-20T15:33:45;20.60;80.00
1453;DHT22;720;47.738;7.998;2023-05-20T15:36:11;20.20;82.70
1453;DHT22;720;47.738;7.998;2023-05-20T15:38:37;20.10;84.00
1453;DHT22;720;47.738;7.998;2023-05-20T15:41:02;19.70;85.00
1453;DHT22;720;47.738;7.998;2023-05-20T15:43:28;19.40;86.40
1453;DHT22;720;47.738;7.998;2023-05-20T15:45:54;19.30;86.90
1453;DHT22;720;47.738;7.998;2023-05-20T15:48:20;19.40;87.00
1453;DHT22;720;47.738;7.998;2023-05-20T15:50:46;19.70;92.10
1453;DHT22;720;47.738;7.998;2023-05-20T15:53:13;19.60;87.10
1453;DHT22;720;47.738;7.998;2023-05-20T15:55:39;19.50;87.50
1453;DHT22;720;47.738;7.998;2023-05-20T15:58:04;19.50;87.60
1453;DHT22;720;47.738;7.998;2023-05-20T16:00:30;19.60;88.90
1453;DHT22;720;47.738;7.998;2023-05-20T16:02:56;19.70;88.10
1453;DHT22;720;47.738;7.998;2023-05-20T16:05:22;19.90;88.50
1453;DHT22;720;47.738;7.998;2023-05-20T16:07:51;20.00;88.20
1453;DHT22;720;47.738;7.998;2023-05-20T16:10:21;20.20;87.00
1453;DHT22;720;47.738;7.998;2023-05-20T16:12:47;20.30;86.20
1453;DHT22;720;47.738;7.998;2023-05-20T16:15:12;20.20;87.20
1453;DHT22;720;47.738;7.998;2023-05-20T16:17:38;20.10;87.70
1453;DHT22;720;47.738;7.998;2023-05-20T16:20:04;20.10;87.70